Time;durP1;ratioP1;P1;durP2;ratioP2;P2;SDS_P1;SDS_P2;PMS_P1;PMS_P2;Temp;Humidity;BMP_temperature;BMP_pressure;BME280_temperature;BME280_humidity;BME280_pressure;Samples;Min_cycle;Max_cycle;Signal;HPM_P1;HPM_P2
2022/06/23 00:00:37;;;;;;;781.28;735.83;;;18.20;99.90;;;18.06;100.00;100659.34;5020254;28;20580;-65
2022/06/23 00:03:31;;;;;;;773.97;728.50;;;17.70;99.90;;;17.97;100.00;100680.91;5024236;28;20225;-65
2022/06/23 00:06:41;;;;;;;775.55;729.28;;;17.60;99.90;;;17.89;100.00;100689.06;5037013;28;20194;-65
2022/06/23 00:09:37;;;;;;;767.80;721.50;;;;;;;18.06;100.00;100703.03;5036876;28;20205;-65
2022/06/23 00:12:32;;;;;;;773.15;726.25;;;18.20;99.90;;;18.09;100.00;100692.28;5019505;28;20225;-65
2022/06/23 00:15:30;;;;;;;770.20;722.92;;;18.10;99.90;;;17.96;100.00;100681.81;5022771;28;20210;-65
2022/06/23 00:18:25;;;;;;;766.55;719.05;;;18.10;99.90;;;17.86;100.00;100694.47;5039113;28;20206;-65
2022/06/23 00:21:28;;;;;;;766.08;718.60;;;17.90;99.90;;;17.97;100.00;100687.16;5042176;28;20236;-65
2022/06/23 00:24:25;;;;;;;765.42;717.45;;;18.20;99.90;;;18.09;100.00;100684.25;5023668;28;20233;-66
2022/06/23 00:27:17;;;;;;;757.13;710.75;;;18.30;99.90;;;17.98;100.00;100678.22;5044202;28;20198;-65
2022/06/23 00:30:36;;;;;;;768.00;719.97;;;18.00;99.90;;;17.92;100.00;100678.31;5027832;28;20199;-65
2022/06/23 00:33:41;;;;;;;751.28;704.63;;;17.90;99.90;;;17.94;100.00;100681.84;5029520;28;20218;-65
2022/06/23 00:36:37;;;;;;;750.22;703.58;;;17.20;99.90;;;17.89;100.00;100670.34;5032037;28;20206;-65
2022/06/23 00:39:39;;;;;;;762.03;714.65;;;18.30;99.90;;;17.68;100.00;100674.25;5017167;28;20569;-65
2022/06/23 00:42:37;;;;;;;751.78;705.20;;;17.70;99.90;;;17.70;100.00;100656.41;5042962;28;20316;-65
2022/06/23 00:45:45;;;;;;;754.65;708.05;;;17.80;99.90;;;17.84;100.00;100661.50;5038972;28;20671;-65
2022/06/23 00:48:51;;;;;;;749.53;703.25;;;17.70;99.90;;;17.59;100.00;100667.25;5033566;28;20197;-65
2022/06/23 00:51:47;;;;;;;742.88;698.92;;;18.00;99.90;;;17.52;100.00;100660.22;5039464;28;20202;-66
2022/06/23 00:54:43;;;;;;;747.70;702.00;;;17.60;99.90;;;17.52;100.00;100672.72;5014705;28;20199;-65
2022/06/23 00:57:37;;;;;;;748.58;702.22;;;17.50;99.90;;;17.45;100.00;100674.59;5014103;28;20225;-66
2022/06/23 01:00:39;;;;;;;754.42;707.10;;;17.50;99.90;;;17.48;100.00;100665.63;5037481;28;20816;-65
2022/06/23 01:03:37;;;;;;;746.10;700.05;;;17.50;99.90;;;17.63;100.00;100653.81;5050278;28;20222;-65
2022/06/23 01:06:26;;;;;;;740.05;693.80;;;;;;;17.44;100.00;100647.88;5035998;28;20203;-65
2022/06/23 01:09:42;;;;;;;744.72;698.25;;;17.20;99.90;;;17.47;100.00;100650.50;5034014;28;20598;-65
2022/06/23 01:12:42;;;;;;;734.22;687.47;;;17.70;99.90;;;17.57;100.00;100669.06;5037196;28;20223;-66
2022/06/23 01:15:49;;;;;;;731.50;684.30;;;17.10;99.90;;;17.56;100.00;100672.63;5035348;28;20217;-66
2022/06/23 01:19:37;;;;;;;726.72;680.38;;;17.50;99.90;;;17.27;100.00;100675.75;5028416;28;20667;-66
2022/06/23 01:22:48;;;;;;;720.25;673.65;;;17.30;99.90;;;17.25;100.00;100682.91;5035715;28;20226;-66
2022/06/23 01:25:55;;;;;;;728.00;680.95;;;17.20;99.90;;;17.36;100.00;100704.13;5026450;28;20202;-66
2022/06/23 01:28:44;;;;;;;725.17;677.90;;;17.60;99.90;;;17.23;100.00;100699.88;5028865;28;20198;-66
2022/06/23 01:31:46;;;;;;;725.80;679.45;;;17.20;99.90;;;17.09;100.00;100713.44;5031594;28;20214;-65
2022/06/23 01:34:39;;;;;;;731.50;685.15;;;;;;;17.01;100.00;100722.44;5025593;28;20654;-66
2022/06/23 01:37:39;;;;;;;722.05;676.03;;;17.10;99.90;;;17.08;100.00;100717.00;5016424;28;20676;-65
2022/06/23 01:40:53;;;;;;;722.97;677.15;;;16.90;99.90;;;17.28;100.00;100706.91;5036629;28;20198;-65
2022/06/23 01:44:13;;;;;;;726.00;679.58;;;17.20;99.90;;;17.39;100.00;100714.78;5038996;28;20245;-65
2022/06/23 01:47:31;;;;;;;720.42;673.65;;;17.30;99.90;;;17.35;100.00;100702.38;5039134;28;20207;-65
2022/06/23 01:50:34;;;;;;;721.65;674.22;;;16.90;99.90;;;17.14;100.00;100689.31;5036719;28;20203;-65
2022/06/23 01:53:29;;;;;;;716.42;670.75;;;17.00;99.90;;;17.15;100.00;100699.97;5047270;28;20594;-65
2022/06/23 01:56:47;;;;;;;717.08;670.95;;;17.20;99.90;;;17.19;100.00;100707.06;5032307;28;20211;-65
2022/06/23 02:00:17;;;;;;;712.55;666.08;;;17.20;99.90;;;17.05;100.00;100722.38;5045612;28;20211;-66
2022/06/23 02:03:33;;;;;;;714.60;666.20;;;17.10;99.90;;;17.06;100.00;100736.63;5035830;28;20253;-65
2022/06/23 02:06:40;;;;;;;705.05;657.15;;;17.40;99.90;;;17.13;100.00;100749.00;5039732;28;20217;-65
2022/06/23 02:09:47;;;;;;;702.78;653.47;;;17.50;99.90;;;17.20;100.00;100764.06;5039544;28;20206;-65
2022/06/23 02:13:05;;;;;;;696.45;648.40;;;16.70;99.90;;;17.21;100.00;100745.34;5056277;28;20220;-65
2022/06/23 02:16:09;;;;;;;700.80;652.10;;;17.20;99.90;;;17.17;100.00;100737.38;5029740;28;20217;-65
2022/06/23 02:19:04;;;;;;;701.70;653.28;;;16.90;99.90;;;17.13;100.00;100732.97;5040672;28;20207;-66
2022/06/23 02:22:00;;;;;;;704.05;654.70;;;16.70;99.90;;;17.04;100.00;100742.00;5050873;28;20626;-65
2022/06/23 02:24:59;;;;;;;708.58;659.95;;;17.30;99.90;;;17.08;100.00;100756.19;5038422;28;20577;-65
2022/06/23 02:28:18;;;;;;;704.95;657.95;;;16.70;99.90;;;17.12;100.00;100757.94;5029621;28;20202;-65
2022/06/23 02:31:21;;;;;;;703.92;656.03;;;17.10;99.90;;;17.12;100.00;100763.28;5029918;28;20206;-65
2022/06/23 02:34:27;;;;;;;697.72;651.42;;;17.50;99.90;;;17.18;100.00;100773.88;5031841;28;20206;-65
2022/06/23 02:37:55;;;;;;;706.45;658.90;;;17.40;99.90;;;17.22;100.00;100780.97;5024841;28;20199;-66
2022/06/23 02:41:27;;;;;;;695.75;649.13;;;17.70;99.90;;;17.15;100.00;100782.81;5036728;28;20207;-65
2022/06/23 02:44:41;;;;;;;701.67;654.60;;;17.10;99.90;;;17.15;100.00;100780.16;5049871;28;20226;-65
2022/06/23 02:47:54;;;;;;;706.55;657.95;;;17.60;99.90;;;17.19;100.00;100791.69;5035816;28;20203;-65
2022/06/23 02:51:35;;;;;;;703.97;656.60;;;17.40;99.90;;;17.10;100.00;100797.16;5022454;28;20206;-66
2022/06/23 02:54:53;;;;;;;700.53;652.78;;;17.10;99.90;;;17.17;100.00;100814.88;5049134;28;20199;-66
2022/06/23 02:58:25;;;;;;;703.10;654.83;;;17.10;99.90;;;17.19;100.00;100803.28;5055266;28;20199;-66
2022/06/23 03:01:27;;;;;;;696.00;648.40;;;17.10;99.90;;;17.31;100.00;100812.91;4987165;28;20206;-65
2022/06/23 03:04:19;;;;;;;703.95;655.60;;;;;;;17.38;100.00;100806.59;5028886;28;20222;-65
2022/06/23 03:07:20;;;;;;;816.70;760.05;;;17.10;99.90;;;17.45;100.00;100807.41;5032659;28;20249;-65
2022/06/23 03:10:32;;;;;;;809.97;755.50;;;17.40;99.90;;;17.51;100.00;100799.28;5034945;28;20217;-66
2022/06/23 03:13:35;;;;;;;705.60;657.45;;;17.70;99.90;;;17.54;100.00;100812.63;5039328;28;20230;-65
2022/06/23 03:16:35;;;;;;;705.28;656.72;;;17.70;99.90;;;17.51;100.00;100808.19;5037924;28;20713;-65
2022/06/23 03:19:42;;;;;;;711.80;664.35;;;17.00;99.90;;;17.52;100.00;100820.66;5006879;28;20217;-65
2022/06/23 03:22:52;;;;;;;712.38;665.42;;;17.50;99.90;;;17.49;100.00;100819.81;5019092;28;20253;-66
2022/06/23 03:25:52;;;;;;;716.70;668.80;;;17.50;99.90;;;17.57;100.00;100845.56;5058466;28;20214;-65
2022/06/23 03:28:46;;;;;;;716.67;668.30;;;17.10;99.90;;;17.53;100.00;100835.81;5019424;28;20199;-66
2022/06/23 03:31:45;;;;;;;719.47;672.08;;;17.50;99.90;;;17.55;100.00;100834.00;5016524;28;20199;-65
2022/06/23 03:34:55;;;;;;;724.25;676.13;;;17.50;99.90;;;17.55;100.00;100835.78;5035153;28;20207;-66
2022/06/23 03:38:02;;;;;;;718.88;670.70;;;17.50;99.90;;;17.55;100.00;100823.28;5042195;28;20199;-65
2022/06/23 03:44:27;;;;;;;726.28;677.55;;;17.50;99.90;;;17.68;100.00;100831.19;5033881;28;20210;-65
2022/06/23 03:47:26;;;;;;;717.75;668.83;;;17.60;99.90;;;17.62;100.00;100828.56;5029073;28;20206;-66
2022/06/23 03:50:34;;;;;;;726.65;677.30;;;17.30;99.90;;;17.58;100.00;100825.94;5016388;28;20206;-66
2022/06/23 03:54:08;;;;;;;728.42;679.30;;;17.60;99.90;;;17.55;100.00;100817.94;5043332;28;20210;-65
2022/06/23 03:57:06;;;;;;;719.38;671.58;;;17.30;99.90;;;17.56;100.00;100810.81;5005783;28;20685;-65
2022/06/23 04:00:17;;;;;;;733.28;684.17;;;18.00;99.90;;;17.63;100.00;100809.81;5029833;28;20201;-65
2022/06/23 04:03:23;;;;;;;722.50;674.38;;;17.60;99.90;;;17.66;100.00;100822.28;5029637;28;20214;-65
2022/06/23 04:06:33;;;;;;;722.92;673.90;;;17.60;99.90;;;17.76;100.00;100843.56;5022094;28;20205;-65
2022/06/23 04:09:32;;;;;;;728.70;680.03;;;17.70;99.90;;;17.76;100.00;100848.03;5020882;28;20214;-65
2022/06/23 04:12:20;;;;;;;733.03;683.35;;;17.40;99.90;;;17.80;100.00;100844.41;5036321;28;20222;-65
2022/06/23 04:15:34;;;;;;;738.88;689.70;;;17.50;99.90;;;17.89;100.00;100844.25;5039410;28;20228;-66
2022/06/23 04:18:27;;;;;;;742.05;692.17;;;17.90;99.90;;;17.95;100.00;100849.53;5034743;28;20551;-66
2022/06/23 04:21:27;;;;;;;737.08;688.30;;;17.90;99.90;;;18.02;100.00;100867.25;5034991;28;20221;-65
2022/06/23 04:24:23;;;;;;;747.40;697.95;;;17.50;99.90;;;17.93;100.00;100872.75;5028883;28;20221;-66
2022/06/23 04:28:14;;;;;;;749.35;700.30;;;17.90;99.90;;;18.02;100.00;100899.38;5033326;28;20198;-66
2022/06/23 04:31:07;;;;;;;738.88;689.88;;;17.70;99.90;;;17.94;100.00;100906.63;5022233;28;20662;-65
2022/06/23 04:33:57;;;;;;;747.50;699.05;;;17.50;99.90;;;18.00;100.00;100914.56;5012474;28;20199;-66
2022/06/23 04:36:46;;;;;;;749.78;700.63;;;17.70;99.90;;;18.05;100.00;100909.16;5021457;28;20202;-65
2022/06/23 04:39:44;;;;;;;749.90;700.85;;;17.60;99.90;;;18.04;100.00;100913.63;5033185;28;20558;-65
2022/06/23 04:42:33;;;;;;;752.30;703.13;;;18.40;99.90;;;18.09;100.00;100927.81;5021717;28;20226;-65
2022/06/23 04:45:29;;;;;;;753.33;703.38;;;17.60;99.90;;;18.12;100.00;100927.78;5007326;28;20711;-66
2022/06/23 04:48:46;;;;;;;758.50;708.35;;;18.00;99.90;;;18.11;100.00;100941.19;5031908;28;20201;-65
2022/06/23 04:51:38;;;;;;;752.05;701.47;;;18.50;99.90;;;18.17;100.00;100941.09;5026908;28;20206;-65
2022/06/23 04:54:43;;;;;;;757.33;707.60;;;18.30;99.90;;;18.20;100.00;100941.06;5019567;28;20586;-66
2022/06/23 04:57:53;;;;;;;753.47;703.78;;;18.10;99.90;;;18.15;100.00;100938.44;5022070;28;20210;-65
2022/06/23 05:00:50;;;;;;;760.58;709.85;;;18.50;99.90;;;18.29;100.00;100957.03;5019850;28;20225;-66
2022/06/23 05:03:47;;;;;;;757.38;706.97;;;18.20;99.90;;;18.31;100.00;100965.03;5021164;28;20227;-65
2022/06/23 05:06:43;;;;;;;766.92;715.95;;;18.50;99.90;;;18.37;100.00;100964.94;5038750;28;20241;-65
2022/06/23 05:09:41;;;;;;;765.22;714.47;;;18.50;99.90;;;18.49;100.00;100972.81;5018769;28;20211;-65
2022/06/23 05:12:42;;;;;;;763.72;713.28;;;18.40;99.90;;;18.47;100.00;100967.47;5032043;28;20707;-65
2022/06/23 05:15:48;;;;;;;760.90;709.92;;;18.20;99.90;;;18.47;100.00;100958.53;5018827;28;20212;-65
2022/06/23 05:19:00;;;;;;;768.35;717.28;;;18.00;99.90;;;18.44;100.00;100962.16;5038571;28;20666;-65
2022/06/23 05:21:55;;;;;;;768.38;717.33;;;18.20;99.90;;;18.56;100.00;100974.47;5016033;28;20253;-65
2022/06/23 05:24:45;;;;;;;774.90;723.30;;;18.70;99.90;;;18.71;100.00;100982.31;5024223;28;20678;-65
2022/06/23 05:27:35;;;;;;;777.10;725.63;;;18.70;99.90;;;18.83;100.00;100976.75;5038498;28;20198;-66
2022/06/23 05:30:36;;;;;;;785.60;733.92;;;19.00;99.90;;;18.77;100.00;100974.19;5038788;28;20195;-66
2022/06/23 05:33:36;;;;;;;787.05;736.42;;;18.80;99.90;;;18.90;100.00;100982.03;5012415;28;20219;-66
2022/06/23 05:36:28;;;;;;;786.72;735.38;;;18.70;99.90;;;18.64;100.00;100966.34;5011666;28;20209;-66
2022/06/23 05:39:25;;;;;;;792.38;740.13;;;18.80;99.90;;;18.83;100.00;100974.06;5026060;28;20207;-65
2022/06/23 05:42:32;;;;;;;786.35;734.95;;;18.90;99.90;;;18.91;100.00;100973.94;5036984;28;20245;-66
2022/06/23 05:45:29;;;;;;;787.45;736.15;;;19.00;99.90;;;18.96;100.00;100969.41;5038337;28;20223;-65
2022/06/23 05:48:24;;;;;;;801.17;748.63;;;18.50;99.90;;;18.82;100.00;100958.03;5023015;28;20201;-66
2022/06/23 05:52:01;;;;;;;804.53;752.67;;;18.50;99.90;;;19.10;100.00;100966.47;5038229;28;20205;-65
2022/06/23 05:55:05;;;;;;;805.85;753.78;;;19.10;99.90;;;19.27;100.00;100974.22;4919664;29;20217;-65
2022/06/23 05:58:25;;;;;;;806.85;754.97;;;19.30;99.90;;;19.36;100.00;100957.97;5044461;28;20209;-66
2022/06/23 06:01:31;;;;;;;811.70;759.05;;;19.20;99.90;;;19.30;100.00;100928.56;5051761;28;20221;-65
2022/06/23 06:04:32;;;;;;;810.80;759.13;;;19.50;99.90;;;19.20;100.00;100909.09;5038892;28;20547;-66
2022/06/23 06:07:25;;;;;;;810.40;757.80;;;19.40;99.90;;;19.37;100.00;100917.72;5024126;28;20221;-65
2022/06/23 06:10:21;;;;;;;817.50;764.88;;;19.40;99.90;;;19.31;100.00;100907.09;5024835;28;20209;-65
2022/06/23 06:13:17;;;;;;;827.10;773.88;;;20.00;99.90;;;19.34;100.00;100895.44;5013022;28;20309;-66
2022/06/23 06:16:06;;;;;;;829.28;776.00;;;19.80;99.90;;;19.29;100.00;100882.09;5024003;28;20194;-65
2022/06/23 06:18:55;;;;;;;828.45;776.20;;;19.90;99.90;;;19.38;100.00;100891.75;5025415;28;20213;-65
2022/06/23 06:21:46;;;;;;;836.70;783.40;;;19.50;99.90;;;19.38;100.00;100887.28;5013479;28;20211;-65
2022/06/23 06:24:43;;;;;;;834.70;782.15;;;19.20;99.90;;;19.36;100.00;100872.13;5024818;28;20222;-65
2022/06/23 06:27:33;;;;;;;829.63;777.10;;;18.20;99.90;;;19.46;100.00;100874.59;5037825;28;20203;-66
2022/06/23 06:30:34;;;;;;;836.50;782.60;;;19.60;99.90;;;19.65;100.00;100871.59;5005353;28;20278;-65
2022/06/23 06:33:38;;;;;;;841.58;787.50;;;19.70;99.90;;;19.63;100.00;100844.81;5038103;28;20605;-65
2022/06/23 06:36:36;;;;;;;842.88;789.65;;;19.70;99.90;;;19.63;100.00;100831.41;5023306;28;20706;-65
2022/06/23 06:39:28;;;;;;;852.90;798.47;;;;;;;19.77;100.00;100825.72;5038009;28;20202;-66
2022/06/23 06:42:20;;;;;;;856.33;802.00;;;20.10;99.90;;;20.01;100.00;100824.28;5024304;28;20230;-65
2022/06/23 06:45:13;;;;;;;855.70;801.03;;;20.20;99.90;;;19.90;100.00;100802.16;5023780;28;20234;-65
2022/06/23 06:48:09;;;;;;;865.00;809.60;;;20.20;99.90;;;20.16;100.00;100805.09;5018784;28;20202;-65
2022/06/23 06:51:26;;;;;;;870.90;816.05;;;20.20;99.90;;;20.02;100.00;100770.53;5037031;28;20198;-66
2022/06/23 06:54:19;;;;;;;863.78;809.28;;;20.30;99.90;;;20.25;100.00;100782.50;5027189;28;20195;-65
2022/06/23 06:57:22;;;;;;;879.75;824.60;;;19.90;99.90;;;20.31;100.00;100763.56;5023727;28;20206;-66
2022/06/23 07:00:22;;;;;;;878.17;823.47;;;20.50;99.90;;;20.42;100.00;100754.31;5036320;28;20230;-66
2022/06/23 07:03:15;;;;;;;878.40;823.17;;;20.20;99.90;;;20.40;100.00;100742.75;5037752;28;20218;-66
2022/06/23 07:06:35;;;;;;;888.85;833.50;;;21.20;99.90;;;20.47;100.00;100732.72;5023072;28;20221;-65
2022/06/23 07:09:40;;;;;;;897.30;839.95;;;20.80;99.90;;;20.61;100.00;100724.28;5023525;28;20186;-65
2022/06/23 07:12:48;;;;;;;893.63;837.80;;;20.90;99.90;;;20.66;100.00;100722.34;5047264;28;20214;-65
2022/06/23 07:15:56;;;;;;;891.67;836.00;;;20.50;99.90;;;20.80;100.00;100716.59;5023469;28;20221;-66
2022/06/23 07:18:55;;;;;;;898.38;842.20;;;21.10;99.90;;;20.90;100.00;100712.72;5022361;28;20206;-66
2022/06/23 07:21:55;;;;;;;907.80;851.40;;;20.80;99.90;;;20.96;100.00;100710.75;5016314;28;20238;-65
2022/06/23 07:25:13;;;;;;;905.63;849.25;;;21.20;99.90;;;21.23;100.00;100710.88;5049251;28;20202;-65
2022/06/23 07:28:38;;;;;;;909.83;852.17;;;21.00;99.90;;;21.17;100.00;100694.91;5036555;28;20206;-66
2022/06/23 07:31:41;;;;;;;913.78;856.78;;;20.90;99.90;;;20.90;100.00;100684.03;5034651;28;20202;-66
2022/06/23 07:34:36;;;;;;;921.85;864.67;;;21.10;99.90;;;21.29;100.00;100708.88;5036358;28;20220;-65
2022/06/23 07:37:41;;;;;;;923.15;866.25;;;21.40;99.90;;;21.30;100.00;100699.88;5034711;28;20198;-65
2022/06/23 07:40:56;;;;;;;924.42;867.22;;;22.20;99.90;;;21.36;100.00;100693.44;5023313;28;20202;-65
2022/06/23 07:44:15;;;;;;;933.08;874.83;;;21.30;99.90;;;21.55;100.00;100688.34;5024761;28;20221;-65
2022/06/23 07:47:04;;;;;;;933.75;874.58;;;;;;;21.40;100.00;100670.88;5003693;28;20214;-66
2022/06/23 07:49:52;;;;;;;934.53;875.47;;;21.80;99.90;;;21.54;100.00;100667.75;5032256;28;20285;-65
2022/06/23 07:52:42;;;;;;;940.35;881.03;;;22.60;99.90;;;21.80;100.00;100693.81;5050405;28;20230;-65
2022/06/23 07:55:42;;;;;;;944.35;885.08;;;21.70;99.90;;;21.80;100.00;100689.31;4996487;28;20201;-65
2022/06/23 07:58:42;;;;;;;945.80;886.70;;;21.70;99.90;;;21.94;100.00;100683.47;5023661;28;20205;-65
2022/06/23 08:02:02;;;;;;;948.35;889.33;;;22.30;99.90;;;22.17;100.00;100686.31;5026561;28;20208;-65
2022/06/23 08:04:50;;;;;;;950.42;891.63;;;;;;;22.11;100.00;100670.38;5037967;28;20577;-66
2022/06/23 08:07:39;;;;;;;958.08;898.25;;;22.50;99.90;;;21.84;100.00;100645.22;5050051;28;20214;-66
2022/06/23 08:10:30;;;;;;;956.50;898.10;;;22.80;99.90;;;21.91;100.00;100653.94;5022494;28;20205;-65
2022/06/23 08:13:27;;;;;;;957.65;897.95;;;22.50;99.90;;;22.18;100.00;100654.88;5012143;28;20217;-65
2022/06/23 08:19:51;;;;;;;964.83;905.47;;;23.10;99.90;;;22.81;100.00;100656.19;5038137;28;20205;-65
2022/06/23 08:22:42;;;;;;;964.72;905.38;;;22.80;99.90;;;22.61;100.00;100609.25;5022068;28;20228;-65
2022/06/23 08:25:30;;;;;;;965.88;905.85;;;23.10;99.90;;;23.45;100.00;100646.47;5022699;28;20693;-65
2022/06/23 08:28:20;;;;;;;984.42;923.80;;;23.00;99.90;;;23.17;100.00;100590.00;5009565;28;20216;-66
2022/06/23 08:31:18;;;;;;;981.85;921.13;;;22.90;99.90;;;22.76;100.00;100551.19;5036246;28;20655;-65
2022/06/23 08:34:31;;;;;;;988.72;928.03;;;23.50;99.90;;;23.06;100.00;100588.69;5010442;28;20191;-65
2022/06/23 08:37:23;;;;;;;992.00;931.58;;;23.90;99.90;;;23.56;100.00;100590.25;5022187;28;20206;-65
2022/06/23 08:40:22;;;;;;;995.35;934.85;;;23.50;99.90;;;23.65;100.00;100585.41;5007392;28;20210;-65
2022/06/23 08:43:30;;;;;;;999.53;938.75;;;24.50;99.90;;;24.27;100.00;100596.19;5021110;28;20229;-65
2022/06/23 08:46:42;;;;;;;1004.28;944.78;;;24.90;99.90;;;23.90;100.00;100551.00;5035109;28;20599;-65
2022/06/23 08:49:45;;;;;;;1012.83;953.85;;;24.80;99.90;;;23.47;100.00;100522.25;5023745;28;20205;-65
2022/06/23 08:52:48;;;;;;;1011.85;952.80;;;24.70;99.90;;;23.77;100.00;100544.38;5030031;28;20218;-65
2022/06/23 08:56:05;;;;;;;1021.38;961.58;;;24.80;99.90;;;23.92;100.00;100547.28;5025830;28;20205;-65
2022/06/23 08:59:40;;;;;;;1020.78;962.47;;;24.20;99.90;;;23.39;100.00;100500.06;4986328;28;20209;-65
2022/06/23 09:02:40;;;;;;;1026.43;967.83;;;24.60;99.90;;;23.56;100.00;100503.88;5037876;28;20221;-66
2022/06/23 09:06:00;;;;;;;1034.53;975.28;;;25.40;99.90;;;24.24;100.00;100524.22;5050653;28;20194;-65
2022/06/23 09:09:19;;;;;;;1036.75;977.90;;;24.90;99.90;;;24.57;100.00;100535.31;5052161;28;20201;-65
2022/06/23 09:12:38;;;;;;;1044.50;984.33;;;26.00;99.90;;;24.77;100.00;100514.59;5053431;28;20229;-65
2022/06/23 09:16:03;;;;;;;1051.03;990.97;;;26.30;99.90;;;24.92;100.00;100489.50;5019324;28;20210;-65
2022/06/23 09:18:56;;;;;;;1052.43;992.10;;;;;;;24.90;100.00;100499.53;5039303;28;20198;-65
2022/06/23 09:21:55;;;;;;;1056.80;995.15;;;25.30;99.90;;;25.21;100.00;100490.78;5040233;28;20586;-65
2022/06/23 09:25:36;;;;;;;1065.35;998.75;;;25.70;99.90;;;25.90;100.00;100492.66;5038741;28;20689;-65
2022/06/23 09:29:09;;;;;;;1061.13;997.08;;;26.20;99.90;;;26.20;100.00;100493.72;5025598;28;20202;-65
2022/06/23 09:32:19;;;;;;;1070.57;999.70;;;26.70;99.90;;;25.92;100.00;100421.16;5008925;28;20230;-65
2022/06/23 09:35:48;;;;;;;1073.22;999.90;;;26.80;99.90;;;25.79;100.00;100374.91;5024654;28;20197;-65
2022/06/23 09:38:42;;;;;;;1075.05;999.90;;;27.40;99.90;;;26.79;100.00;100443.41;5027492;28;20200;-65
2022/06/23 09:42:30;;;;;;;1081.47;999.90;;;27.10;99.90;;;26.25;100.00;100353.38;5024627;28;20577;-65
2022/06/23 09:45:33;;;;;;;1091.03;999.90;;;27.20;99.90;;;26.60;100.00;100353.22;5022204;28;20201;-65
2022/06/23 09:48:46;;;;;;;1095.25;999.90;;;27.40;99.90;;;26.65;100.00;100389.09;5049256;28;20218;-65
2022/06/23 09:51:34;;;;;;;1098.95;999.90;;;;;;;27.06;100.00;100359.53;5038281;28;20201;-65
2022/06/23 09:54:25;;;;;;;1109.25;999.90;;;27.90;99.90;;;26.95;100.00;100314.00;5024104;28;20202;-65
2022/06/23 09:57:44;;;;;;;1115.47;999.90;;;28.40;99.90;;;28.02;100.00;100367.16;5038986;28;20583;-65
2022/06/23 10:00:41;;;;;;;1124.05;999.90;;;;;;;27.86;100.00;100302.03;5020285;28;20213;-65
2022/06/23 10:04:29;;;;;;;1118.38;999.90;;;27.60;99.90;;;27.33;100.00;100246.53;5025061;28;20222;-65
2022/06/23 10:08:11;;;;;;;1124.57;999.90;;;28.70;99.90;;;27.67;100.00;100290.59;4998172;28;20230;-65
2022/06/23 10:11:43;;;;;;;1129.13;999.90;;;29.40;99.90;;;28.16;100.00;100263.81;5017583;28;20204;-66
2022/06/23 10:15:19;;;;;;;1138.40;999.90;;;29.30;99.90;;;28.27;97.11;100185.13;5038042;28;20205;-65
2022/06/23 10:19:03;;;;;;;1137.57;999.90;;;28.90;99.90;;;27.93;100.00;100213.69;4966758;28;20202;-65
2022/06/23 10:22:32;;;;;;;1133.45;999.90;;;28.90;99.90;;;27.39;99.85;100094.06;5037253;28;20228;-65
2022/06/23 10:25:59;;;;;;;1114.80;999.90;;;28.40;99.90;;;27.68;100.00;100167.38;5014589;28;20206;-66
2022/06/23 10:29:35;;;;;;;1127.10;999.90;;;28.00;99.90;;;28.28;94.04;100142.50;5029622;28;20206;-65
2022/06/23 10:33:10;;;;;;;1135.28;999.90;;;29.50;99.90;;;28.93;95.96;100177.88;5038095;28;20603;-65
2022/06/23 10:36:30;;;;;;;1128.82;999.90;;;29.10;99.90;;;29.07;98.92;100220.47;5021062;28;20673;-65
2022/06/23 10:39:55;;;;;;;1150.97;999.90;;;30.40;99.90;;;30.00;93.83;100210.97;4959076;28;20210;-65
2022/06/23 10:42:58;;;;;;;1144.82;999.90;;;31.00;99.90;;;28.66;94.49;100031.88;5037672;28;20241;-65
2022/06/23 10:46:11;;;;;;;1152.35;999.90;;;30.30;99.90;;;28.89;95.64;100065.63;5040797;28;20201;-65
2022/06/23 10:49:22;;;;;;;1154.43;999.90;;;30.70;99.90;;;29.85;92.83;100107.50;5025818;28;20193;-65
2022/06/23 10:52:59;;;;;;;1168.35;999.90;;;31.00;99.90;;;30.03;90.65;100066.22;5010230;28;20218;-66
2022/06/23 10:56:25;;;;;;;1175.35;999.90;;;32.00;99.90;;;30.61;87.73;100061.66;5015856;28;20190;-65
2022/06/23 10:59:31;;;;;;;1180.68;999.90;;;31.70;99.90;;;30.45;90.14;100056.53;5026931;28;20202;-65
2022/06/23 11:02:41;;;;;;;1187.45;999.90;;;32.40;99.90;;;30.37;85.43;99964.38;5049844;28;20221;-65
2022/06/23 11:05:57;;;;;;;1194.15;999.90;;;32.70;99.90;;;30.16;86.07;99928.78;5051299;28;20674;-66
2022/06/23 11:09:12;;;;;;;1196.50;999.90;;;32.10;99.90;;;29.62;90.84;99915.75;5023732;28;20217;-65
2022/06/23 11:12:06;;;;;;;1201.78;999.90;;;;;;;30.86;85.01;99964.00;5043396;28;20218;-65
2022/06/23 11:15:50;;;;;;;1204.22;999.90;;;32.10;99.90;;;30.54;84.58;99887.47;5025748;28;20206;-65
2022/06/23 11:19:15;;;;;;;1196.82;999.90;;;31.30;99.90;;;30.57;83.46;99892.69;5041877;28;20205;-65
2022/06/23 11:22:29;;;;;;;1199.32;999.90;;;32.40;99.90;;;30.85;85.18;99883.09;5027113;28;20698;-65
2022/06/23 11:25:42;;;;;;;1165.97;999.90;;;32.40;99.90;;;30.23;82.67;99770.97;5047209;28;20205;-65
2022/06/23 11:29:24;;;;;;;1204.13;999.90;;;32.80;99.90;;;30.85;80.48;99798.47;5026529;28;20218;-65
2022/06/23 11:32:58;;;;;;;1214.03;999.90;;;32.50;99.90;;;30.64;82.77;99759.34;5021558;28;20222;-65
2022/06/23 11:36:21;;;;;;;1205.72;999.90;;;31.70;99.90;;;29.06;84.32;99614.31;5050979;28;20201;-65
2022/06/23 11:39:50;;;;;;;1148.97;999.90;;;31.40;99.90;;;31.19;83.63;99845.63;5050569;28;20212;-65
2022/06/23 11:43:07;;;;;;;1216.07;999.90;;;32.70;99.90;;;31.55;81.31;99799.72;5027555;28;20222;-65
2022/06/23 11:46:13;;;;;;;1217.55;999.90;;;33.30;99.90;;;31.98;80.25;99807.75;5044150;28;20197;-65
2022/06/23 11:49:31;;;;;;;1225.68;999.90;;;34.20;99.90;;;31.94;77.94;99743.38;5042885;28;20218;-65
2022/06/23 11:53:06;;;;;;;1227.65;999.90;;;34.10;99.90;;;31.45;74.89;99589.28;5046734;28;20236;-65
2022/06/23 11:56:28;;;;;;;1228.07;999.90;;;33.80;99.90;;;31.40;75.61;99566.97;5029496;28;20571;-65
2022/06/23 11:59:43;;;;;;;1224.30;999.90;;;33.60;99.90;;;31.64;78.32;99623.97;5038390;28;20213;-65
2022/06/23 12:03:36;;;;;;;1178.63;999.90;;;33.50;99.90;;;31.66;79.16;99599.25;5052336;28;20220;-65
2022/06/23 12:06:40;;;;;;;1163.18;999.90;;;32.90;99.90;;;31.11;80.43;99538.63;5037065;28;20202;-65
2022/06/23 12:09:55;;;;;;;1177.50;999.90;;;33.60;99.90;;;31.22;73.16;99444.84;5010903;28;20221;-65
2022/06/23 12:12:48;;;;;;;1159.53;999.90;;;33.40;99.90;;;32.13;77.37;99601.19;5049548;28;20698;-65
2022/06/23 12:15:48;;;;;;;1210.30;999.90;;;34.60;99.90;;;33.54;74.10;99651.56;5030292;28;20210;-66
2022/06/23 12:18:48;;;;;;;1228.03;999.90;;;34.20;99.90;;;32.54;75.28;99538.13;5014284;28;20212;-66
2022/06/23 12:22:13;;;;;;;1017.72;952.17;;;34.20;99.90;;;32.55;73.61;99487.84;5041741;28;20213;-66
2022/06/23 12:25:28;;;;;;;1086.25;999.90;;;35.10;99.90;;;33.15;73.28;99534.91;5025520;28;20217;-65
2022/06/23 12:29:01;;;;;;;1208.47;999.90;;;35.60;99.90;;;33.22;72.07;99483.97;5050204;28;20217;-66